createdAt,value
2022-10-04T00:03:13.007Z,12.77
2022-10-04T00:08:32.888Z,12.71
2022-10-04T00:13:38.167Z,12.60
2022-10-04T00:18:45.246Z,12.70
2022-10-04T00:23:47.894Z,12.54
2022-10-04T00:28:50.243Z,12.48
2022-10-04T00:34:03.668Z,12.57
2022-10-04T00:39:05.247Z,12.65
2022-10-04T00:44:16.552Z,12.57
2022-10-04T00:49:23.201Z,12.48
2022-10-04T00:54:54.550Z,12.61
2022-10-04T00:59:59.728Z,12.57
2022-10-04T01:05:21.563Z,12.55
2022-10-04T01:10:30.670Z,12.55
2022-10-04T01:15:43.160Z,12.51
2022-10-04T01:21:03.630Z,12.41
2022-10-04T01:26:26.559Z,12.57
2022-10-04T01:31:33.548Z,12.43
2022-10-04T01:36:36.967Z,12.41
2022-10-04T01:41:56.867Z,12.14
2022-10-04T01:47:03.154Z,12.27
2022-10-04T01:52:19.805Z,12.24
2022-10-04T01:57:30.993Z,12.22
2022-10-04T02:02:45.448Z,12.37
2022-10-04T02:07:48.957Z,12.34
2022-10-04T02:12:54.708Z,12.24
2022-10-04T02:17:57.322Z,12.32
2022-10-04T02:23:03.257Z,12.28
2022-10-04T02:28:10.787Z,12.17
2022-10-04T02:33:12.689Z,12.11
2022-10-04T02:38:28.510Z,12.26
2022-10-04T02:43:38.874Z,11.96
2022-10-04T02:48:45.661Z,12.21
2022-10-04T02:54:03.808Z,12.12
2022-10-04T02:59:07.066Z,12.10
2022-10-04T03:04:12.049Z,12.16
2022-10-04T03:09:14.881Z,12.28
2022-10-04T03:14:21.009Z,12.02
2022-10-04T03:19:25.002Z,11.97
2022-10-04T03:24:37.234Z,12.02
2022-10-04T03:29:43.256Z,11.99
2022-10-04T03:34:53.997Z,12.03
2022-10-04T03:39:57.095Z,11.91
2022-10-04T03:45:06.344Z,12.09
2022-10-04T03:50:25.328Z,11.86
2022-10-04T03:55:53.487Z,11.83
2022-10-04T04:01:11.279Z,12.04
2022-10-04T04:06:17.102Z,11.91
2022-10-04T04:11:23.691Z,11.99
2022-10-04T04:16:28.685Z,12.02
2022-10-04T04:21:31.795Z,11.93
2022-10-04T04:26:45.468Z,11.92
2022-10-04T04:31:58.795Z,11.98
2022-10-04T04:37:03.092Z,12.03
2022-10-04T04:42:15.350Z,11.98
2022-10-04T04:47:40.683Z,11.85
2022-10-04T04:52:50.228Z,11.70
2022-10-04T04:57:56.021Z,11.80
2022-10-04T05:03:00.839Z,11.89
2022-10-04T05:08:20.785Z,11.79
2022-10-04T05:13:28.810Z,11.72
2022-10-04T05:18:33.162Z,11.80
2022-10-04T05:23:35.444Z,11.62
2022-10-04T05:28:37.116Z,11.89
2022-10-04T05:33:46.748Z,11.82
2022-10-04T05:39:04.448Z,11.88
2022-10-04T05:44:26.111Z,11.69
2022-10-04T05:49:33.290Z,11.68
2022-10-04T05:54:35.838Z,11.58
2022-10-04T06:00:17.313Z,11.67
2022-10-04T06:05:44.971Z,11.81
2022-10-04T06:11:03.202Z,12.07
2022-10-04T06:16:23.709Z,12.03
2022-10-04T06:21:27.671Z,11.93
2022-10-04T06:26:38.400Z,12.03
2022-10-04T06:32:09.024Z,12.24
2022-10-04T06:37:25.573Z,12.08
2022-10-04T06:43:02.709Z,12.04
2022-10-04T06:48:25.187Z,12.22
2022-10-04T06:53:59.349Z,12.22
2022-10-04T06:59:33.357Z,12.51
2022-10-04T07:05:07.060Z,12.52
2022-10-04T07:10:19.438Z,12.70
2022-10-04T07:15:29.377Z,12.85
2022-10-04T07:20:35.699Z,13.01
2022-10-04T07:25:43.891Z,12.96
2022-10-04T07:31:03.749Z,13.04
2022-10-04T07:36:10.991Z,13.53
2022-10-04T07:41:36.172Z,13.40
2022-10-04T07:46:46.277Z,13.65
2022-10-04T07:52:20.666Z,13.75
2022-10-04T07:57:40.915Z,13.61
2022-10-04T08:02:48.606Z,13.72
2022-10-04T08:08:00.567Z,13.96
2022-10-04T08:13:22.294Z,14.19
2022-10-04T08:18:29.958Z,13.85
2022-10-04T08:23:53.321Z,13.87
2022-10-04T08:29:22.513Z,14.25
2022-10-04T08:34:44.884Z,14.03
2022-10-04T08:39:56.443Z,13.96
2022-10-04T08:45:45.998Z,14.29
2022-10-04T08:51:25.529Z,14.23
2022-10-04T08:56:52.753Z,14.35
2022-10-04T09:02:25.409Z,14.62
2022-10-04T09:08:14.875Z,14.24
2022-10-04T09:13:42.993Z,14.28
2022-10-04T09:18:57.206Z,14.66
2022-10-04T09:24:35.849Z,14.78
2022-10-04T09:29:52.493Z,15.21
2022-10-04T09:34:59.638Z,15.20
2022-10-04T09:40:42.417Z,15.16
2022-10-04T09:45:56.047Z,15.20
2022-10-04T09:51:07.946Z,15.32
2022-10-04T09:56:15.831Z,15.51
2022-10-04T10:02:05.360Z,15.58
2022-10-04T10:07:35.866Z,15.19
2022-10-04T10:13:14.046Z,15.45
2022-10-04T10:18:21.850Z,15.89
2022-10-04T10:23:38.280Z,16.01
2022-10-04T10:28:42.651Z,16.65
2022-10-04T10:34:13.567Z,16.42
2022-10-04T10:39:36.886Z,15.92
2022-10-04T10:45:14.990Z,16.16
2022-10-04T10:51:00.226Z,16.01
2022-10-04T10:56:04.604Z,16.43
2022-10-04T11:01:36.279Z,16.34
2022-10-04T11:06:50.342Z,16.39
2022-10-04T11:12:10.768Z,16.28
2022-10-04T11:17:46.532Z,16.48
2022-10-04T11:23:31.708Z,16.96
2022-10-04T11:28:50.415Z,16.81
2022-10-04T11:34:17.769Z,17.15
2022-10-04T11:39:55.373Z,17.33
2022-10-04T11:45:17.194Z,17.79
2022-10-04T11:50:55.993Z,18.06
2022-10-04T11:56:22.282Z,18.24
2022-10-04T12:01:59.858Z,17.96
2022-10-04T12:07:22.741Z,17.98
2022-10-04T12:12:53.541Z,17.46
2022-10-04T12:18:19.755Z,17.56
2022-10-04T12:23:24.147Z,17.21
2022-10-04T12:28:44.450Z,17.23
2022-10-04T12:34:24.010Z,17.12
2022-10-04T12:39:44.070Z,17.19
2022-10-04T12:44:45.520Z,17.14
2022-10-04T12:50:13.884Z,16.74
2022-10-04T12:55:47.537Z,16.99
2022-10-04T13:00:52.679Z,17.04
2022-10-04T13:06:09.567Z,16.69
2022-10-04T13:11:17.165Z,16.58
2022-10-04T13:22:54.941Z,17.14
2022-10-04T13:27:58.012Z,16.96
2022-10-04T13:33:30.060Z,16.65
2022-10-04T13:38:41.395Z,16.92
2022-10-04T13:43:42.849Z,16.97
2022-10-04T13:48:51.683Z,16.75
2022-10-04T13:54:50.276Z,16.96
2022-10-04T14:00:06.238Z,16.64
2022-10-04T14:05:32.883Z,17.03
2022-10-04T14:10:46.499Z,17.11
2022-10-04T14:16:19.148Z,17.09
2022-10-04T14:21:35.254Z,16.69
2022-10-04T14:27:06.968Z,16.46
2022-10-04T14:32:51.524Z,16.39
2022-10-04T14:38:14.523Z,16.60
2022-10-04T14:43:41.098Z,16.92
2022-10-04T14:49:11.559Z,16.74
2022-10-04T14:54:29.665Z,16.95
2022-10-04T14:59:44.683Z,16.92
2022-10-04T15:04:48.964Z,16.36
2022-10-04T15:09:59.802Z,16.25
2022-10-04T15:15:20.273Z,16.19
2022-10-04T15:20:57.071Z,16.23
2022-10-04T15:26:50.128Z,15.99
2022-10-04T15:32:19.333Z,15.66
2022-10-04T15:37:25.808Z,15.49
2022-10-04T15:42:33.347Z,15.41
2022-10-04T15:47:56.784Z,15.27
2022-10-04T15:53:20.005Z,15.12
2022-10-04T15:58:41.958Z,15.07
2022-10-04T16:04:10.273Z,14.91
2022-10-04T16:09:33.526Z,14.78
2022-10-04T16:14:57.012Z,14.54
2022-10-04T16:20:12.978Z,14.35
2022-10-04T16:25:38.447Z,14.22
2022-10-04T16:30:49.962Z,14.16
2022-10-04T16:36:16.423Z,14.07
2022-10-04T16:41:29.198Z,13.96
2022-10-04T16:46:38.192Z,14.10
2022-10-04T16:52:14.131Z,13.75
2022-10-04T16:57:22.376Z,13.49
2022-10-04T17:02:46.107Z,13.58
2022-10-04T17:08:20.888Z,13.34
2022-10-04T17:13:50.774Z,12.96
2022-10-04T17:19:03.336Z,12.90
2022-10-04T17:24:17.001Z,12.71
2022-10-04T17:29:28.682Z,12.61
2022-10-04T17:34:48.999Z,12.51
2022-10-04T17:40:08.909Z,12.36
2022-10-04T17:45:29.333Z,12.14
2022-10-04T17:51:15.377Z,11.91
2022-10-04T17:56:45.720Z,11.90
2022-10-04T18:02:04.255Z,11.90
2022-10-04T18:07:12.130Z,11.75
2022-10-04T18:12:42.222Z,11.82
2022-10-04T18:17:50.946Z,11.74
2022-10-04T18:23:16.772Z,11.71
2022-10-04T18:28:22.785Z,11.53
2022-10-04T18:33:50.001Z,11.43
2022-10-04T18:39:14.380Z,11.36
2022-10-04T18:44:19.514Z,11.15
2022-10-04T18:49:26.986Z,11.11
2022-10-04T18:54:41.853Z,11.06
2022-10-04T19:00:29.548Z,10.98
2022-10-04T19:05:51.287Z,10.84
2022-10-04T19:10:59.651Z,10.76
2022-10-04T19:16:19.902Z,10.80
2022-10-04T19:21:39.656Z,10.71
2022-10-04T19:26:47.404Z,10.72
2022-10-04T19:32:04.291Z,10.88
2022-10-04T19:37:17.712Z,11.01
2022-10-04T19:42:33.931Z,11.01
2022-10-04T19:47:58.010Z,10.94
2022-10-04T19:53:07.634Z,10.88
2022-10-04T19:58:38.918Z,10.98
2022-10-04T20:03:40.795Z,10.97
2022-10-04T20:09:25.488Z,10.96
2022-10-04T20:14:26.904Z,10.78
2022-10-04T20:19:28.389Z,10.55
2022-10-04T20:24:50.348Z,10.47
2022-10-04T20:29:51.780Z,10.35
2022-10-04T20:34:55.315Z,10.29
2022-10-04T20:39:57.071Z,10.17
2022-10-04T20:45:10.645Z,10.30
2022-10-04T20:50:17.334Z,10.34
2022-10-04T20:55:27.229Z,10.32
2022-10-04T21:00:33.853Z,10.05
2022-10-04T21:05:35.915Z,10.15
2022-10-04T21:10:37.512Z,9.91
2022-10-04T21:15:55.531Z,9.71
2022-10-04T21:20:57.047Z,9.43
2022-10-04T21:26:18.916Z,9.44
2022-10-04T21:31:20.576Z,9.80
2022-10-04T21:36:22.193Z,9.48
2022-10-04T21:41:23.751Z,9.37
2022-10-04T21:46:25.419Z,9.24
2022-10-04T21:51:26.998Z,9.16
2022-10-04T21:56:28.604Z,8.98
2022-10-04T22:01:30.268Z,8.95
2022-10-04T22:06:31.841Z,9.34
2022-10-04T22:11:33.387Z,9.28
2022-10-04T22:16:35.034Z,9.06
2022-10-04T22:21:36.570Z,8.92
2022-10-04T22:26:38.091Z,8.91
2022-10-04T22:31:43.919Z,8.80
2022-10-04T22:36:48.416Z,8.95
2022-10-04T22:41:59.288Z,8.97
2022-10-04T22:47:02.075Z,8.70
2022-10-04T22:52:11.691Z,8.52
2022-10-04T22:57:15.407Z,8.51
2022-10-04T23:02:28.517Z,8.54
2022-10-04T23:07:32.783Z,8.43
2022-10-04T23:12:36.879Z,8.38
2022-10-04T23:17:39.499Z,8.54
2022-10-04T23:22:45.391Z,8.45
2022-10-04T23:27:48.105Z,8.86
2022-10-04T23:32:52.929Z,8.79
2022-10-04T23:37:54.831Z,8.71
2022-10-04T23:42:57.533Z,8.70
2022-10-04T23:48:01.289Z,8.54
2022-10-04T23:53:06.472Z,8.54
2022-10-04T23:58:17.690Z,8.40
